CDT,Max TemperatureF,Mean TemperatureF,Min TemperatureF,Max Dew PointF,MeanDew PointF,Min DewpointF,Max Humidity, Mean Humidity, Min Humidity, Max Sea Level PressureIn, Mean Sea Level PressureIn, Min Sea Level PressureIn, Max VisibilityMiles, Mean VisibilityMiles, Min VisibilityMiles, Max Wind SpeedMPH, Mean Wind SpeedMPH, Max Gust SpeedMPH,PrecipitationIn, CloudCover, Events, WindDirDegrees
2012-9-1,80,58,37,52,44,37,100,64,26,30.26,30.20,30.14,10,9,0,12,2,,0.00,0,Fog,96
2012-9-2,80,61,42,55,50,41,100,67,32,30.15,30.06,29.97,10,10,0,12,3,17,0.00,0,Fog,160
2012-9-3,84,68,51,64,57,50,100,68,37,29.99,29.94,29.90,10,10,3,12,3,,0.00,2,Rain-Thunderstorm,266
2012-9-4,86,64,42,68,56,43,100,75,29,29.95,29.89,29.77,10,7,0,12,2,17,0.00,2,Fog-Rain,176
2012-9-5,69,58,46,66,55,46,100,82,49,29.87,29.84,29.80,10,9,0,10,3,,0.11,3,Fog-Rain,246
2012-9-6,73,55,37,54,45,37,100,69,31,29.96,29.92,29.87,10,9,0,12,3,21,0.14,3,Fog-Rain,287
2012-9-7,62,56,50,54,51,46,100,85,59,29.96,29.92,29.89,10,10,5,15,4,22,0.19,7,Rain,305
2012-9-8,60,54,48,52,48,43,100,86,59,29.94,29.85,29.79,10,10,4,14,4,30,0.29,6,Rain,300
2012-9-9,64,50,35,52,45,36,100,79,45,30.15,30.09,29.95,10,9,1,15,4,20,0.01,3,Rain,331
2012-9-10,73,52,32,50,42,32,100,68,33,30.15,30.07,29.96,10,9,0,14,4,26,0.00,0,Fog,199
2012-9-11,80,70,59,52,50,46,72,51,36,29.97,29.90,29.84,10,10,10,15,8,23,0.00,0,,201
2012-9-12,69,58,48,54,47,37,93,66,42,30.21,30.08,29.89,10,10,10,12,6,17,0.04,5,Rain,252
2012-9-13,62,48,33,45,39,28,100,68,27,30.31,30.26,30.20,10,10,2,16,4,28,0.00,2,,278
2012-9-14,62,48,32,45,39,32,100,74,39,30.35,30.32,30.28,10,10,10,13,3,18,0.00,3,,317
2012-9-15,71,50,30,52,40,30,100,75,35,30.34,30.20,30.02,10,8,0,10,2,16,0.00,0,Fog,169
2012-9-16,78,60,42,54,46,41,100,66,28,30.01,29.93,29.85,10,10,5,15,3,23,0.00,1,,234
2012-9-17,60,51,42,54,47,39,100,87,59,29.93,29.89,29.85,10,9,4,15,5,21,0.25,7,Rain,346
2012-9-18,46,38,30,39,34,28,100,86,61,29.96,29.92,29.90,10,9,1,18,4,25,0.08,5,Rain,317
2012-9-19,53,40,28,48,38,27,100,84,57,29.94,29.75,29.63,10,10,5,22,4,29,0.37,5,Rain-Thunderstorm,204
2012-9-20,53,42,32,46,42,32,100,87,62,29.84,29.76,29.67,10,9,2,15,7,24,0.13,7,Rain,274
2012-9-21,50,41,32,43,38,32,100,86,62,29.82,29.77,29.74,10,10,2,12,3,18,0.08,6,Rain-Thunderstorm,281
2012-9-22,48,40,32,39,35,32,100,85,54,30.12,29.97,29.75,10,10,7,25,5,31,0.03,6,Rain,331
2012-9-23,48,39,30,37,33,28,100,83,50,30.20,30.15,30.09,10,10,4,12,4,20,0.04,5,Rain,300
2012-9-24,66,49,32,41,33,28,100,63,28,30.08,29.84,29.64,10,10,10,20,5,30,0.00,2,,242
2012-9-25,59,44,28,41,34,28,100,79,36,29.97,29.89,29.83,10,10,2,12,2,,0.00,2,,348
2012-9-26,51,38,24,41,32,23,100,86,54,30.24,30.11,29.96,10,10,1,13,1,16,0.00,4,Rain,340
2012-9-27,60,42,24,45,33,23,100,77,34,30.32,30.25,30.20,10,8,0,7,1,,0.00,2,Fog,222
2012-9-28,68,48,28,43,34,27,100,72,28,30.21,30.17,30.11,10,10,10,9,1,,0.00,0,,280
2012-9-29,66,49,32,43,36,30,100,70,26,30.13,30.10,30.07,10,10,7,12,2,,0.00,0,,21
2012-9-30,64,47,30,48,36,30,100,79,30,30.09,30.02,29.94,10,7,0,9,1,,0.00,2,Fog,117